Malmesbury Airport


Codes: FAMY/
Name: Malmesbury Airport
City: Mammesbury
Country: South Africa
Elevation: 971 ft.

Photos at Malmesbury Airport


   Photos courtesy of SpottingLog. You can add your own sightings and photos by signing up for a free trial today.



No photos found.

Weather at Malmesbury Airport


Time (UTC)DescriptionTempratureWindCloud coverageVisibilityPressureHumidity
21-Feb-2024 03:00Clear Sky17°C4 mph, S8%10000m1015hPa92%
21-Feb-2024 06:00Scattered Clouds18°C11 mph, S37%10000m1016hPa77%
21-Feb-2024 09:00Scattered Clouds24°C13 mph, S25%10000m1015hPa39%
21-Feb-2024 12:00Few Clouds26°C16 mph, S13%10000m1014hPa29%
21-Feb-2024 15:00Clear Sky23°C20 mph, S0%10000m1014hPa44%
21-Feb-2024 18:00Clear Sky16°C13 mph, S0%10000m1014hPa67%
21-Feb-2024 21:00Clear Sky15°C11 mph, S0%10000m1015hPa73%
22-Feb-2024 00:00Clear Sky14°C9 mph, S3%10000m1014hPa80%
22-Feb-2024 03:00Scattered Clouds13°C4 mph, S31%10000m1013hPa84%
22-Feb-2024 06:00Scattered Clouds16°C7 mph, S37%10000m1014hPa63%
22-Feb-2024 09:00Clear Sky24°C7 mph, S10%10000m1013hPa36%
22-Feb-2024 12:00Clear Sky26°C16 mph, S7%10000m1012hPa29%
22-Feb-2024 15:00Clear Sky23°C18 mph, S3%10000m1012hPa40%
22-Feb-2024 18:00Clear Sky16°C11 mph, S2%10000m1012hPa61%
22-Feb-2024 21:00Clear Sky14°C7 mph, S0%10000m1012hPa70%
23-Feb-2024 00:00Clear Sky13°C7 mph, S0%10000m1011hPa73%
23-Feb-2024 03:00Clear Sky12°C4 mph, SE0%10000m1010hPa77%
23-Feb-2024 06:00Clear Sky16°C4 mph, SE2%10000m1011hPa60%
23-Feb-2024 09:00Clear Sky26°C4 mph, NW2%10000m1009hPa32%
23-Feb-2024 12:00Clear Sky30°C9 mph, W3%10000m1007hPa19%
23-Feb-2024 15:00Clear Sky27°C13 mph, SW4%10000m1006hPa30%
23-Feb-2024 18:00Scattered Clouds18°C7 mph, SW39%10000m1008hPa62%
23-Feb-2024 21:00Few Clouds14°C4 mph, S14%10000m1010hPa90%
24-Feb-2024 00:00Scattered Clouds14°C2 mph, S34%10000m1010hPa92%
24-Feb-2024 03:00Scattered Clouds13°C2 mph, NW33%10000m1011hPa92%
24-Feb-2024 06:00Scattered Clouds16°C4 mph, N29%10000m1013hPa77%
24-Feb-2024 09:00Broken Clouds23°C9 mph, NW74%10000m1013hPa45%
24-Feb-2024 12:00Overcast Clouds26°C16 mph, W87%10000m1013hPa36%
24-Feb-2024 15:00Overcast Clouds22°C11 mph, W100%10000m1014hPa50%
24-Feb-2024 18:00Overcast Clouds18°C4 mph, W100%10000m1017hPa77%
24-Feb-2024 21:00Light Rain18°C4 mph, S99%10000m1018hPa83%
25-Feb-2024 00:00Light Rain16°C9 mph, S99%10000m1018hPa80%
25-Feb-2024 03:00Overcast Clouds14°C7 mph, S100%10000m1019hPa80%
25-Feb-2024 06:00Broken Clouds16°C9 mph, S74%10000m1021hPa68%
25-Feb-2024 09:00Few Clouds23°C11 mph, S11%10000m1021hPa45%
25-Feb-2024 12:00Clear Sky26°C16 mph, S7%10000m1020hPa29%
25-Feb-2024 15:00Clear Sky22°C18 mph, S2%10000m1019hPa38%
25-Feb-2024 18:00Clear Sky16°C13 mph, S5%10000m1019hPa63%
25-Feb-2024 21:00Scattered Clouds15°C9 mph, S41%10000m1020hPa66%
26-Feb-2024 00:00Broken Clouds14°C7 mph, SE54%10000m1018hPa68%